Impacts METAR Board
IDs:

KLAS - Las Vegas/Reid Intl, NV, US

Updated at: 0700 UTC 07 Dec 2022
Potential Impact None Slight Moderate High
Time 06/19Z 06/20Z 06/21Z 06/22Z 06/23Z 07/00Z 07/01Z 07/02Z 07/03Z 07/04Z 07/05Z 07/06Z 07/07Z
Temp54 55 57 56 56 56 55 54 54 52 50 47 47
Dewpt34 34 33 33 30 29 31 31 32 32 34 33 33
Altim30.01 29.99 29.98 29.97 29.97 29.97 29.97 29.99 29.99 30.00 30.01 30.02 30.02
VIS10 10 10 10 10 10 10 10 10 10 10 10 10
CIG240 210 210 210 210 210 170 210 210 210 210 -- --
CoverBKNBKNBKNBKNBKNBKNBKNBKNBKNBKNBKNSCTFEW
FltCatVFRVFRVFRVFRVFRVFRVFRVFRVFRVFRVFRVFRVFR
WX--------------------------
WDir020700040000250290280220
WSpd0 3 4 4 0 4 0 0 0 3 4 6 3
WGst-- -- -- -- -- -- -- -- -- -- -- -- --
Raw hourly METARs
KLAS 061856Z 00000KT 10SM FEW075 SCT170 BKN240 12/01 A3001 RMK AO2 SLP157 T01220011
KLAS 061956Z 02003KT 10SM FEW075 FEW150 BKN210 13/01 A2999 RMK AO2 SLP152 T01280011
KLAS 062056Z 07004KT 10SM FEW075 BKN210 14/01 A2998 RMK AO2 SLP146 T01390006 56019
KLAS 062156Z VRB04KT 10SM FEW075 BKN210 13/01 A2997 RMK AO2 SLP146 T01330006
KLAS 062256Z 00000KT 10SM FEW075 SCT170 BKN210 13/M01 A2997 RMK AO2 SLP145 T01331011
KLAS 062356Z 04004KT 10SM FEW075 SCT170 BKN210 13/M02 A2997 RMK AO2 SLP147 T01331017 10144 20106 55001
KLAS 070056Z 00000KT 10SM FEW075 BKN170 BKN210 13/M01 A2997 RMK AO2 SLP148 T01281006
KLAS 070156Z 00000KT 10SM FEW075 SCT170 BKN210 12/M01 A2999 RMK AO2 SLP153 T01221006
KLAS 070256Z 00000KT 10SM FEW075 SCT170 BKN210 12/00 A2999 RMK AO2 SLP154 T01220000 53007
KLAS 070356Z 25003KT 10SM FEW075 SCT170 BKN210 11/00 A3000 RMK AO2 SLP156 T01110000
KLAS 070456Z 29004KT 10SM FEW075 SCT170 BKN210 10/01 A3001 RMK AO2 SLP159 T01000011
KLAS 070556Z 28006KT 10SM FEW170 SCT210 08/01 A3002 RMK AO2 SLP163 T00830006 10133 20083 53008
KLAS 070656Z 22003KT 10SM FEW220 08/01 A3002 RMK AO2 SLP163 T00830006



Page loaded:  07:49 UTC  |   11:49 PM Pacific  |   12:49 AM Mountain  |   01:49 AM Central  |   02:49 AM Eastern

 

ADVISORIES

FORECASTS

FORECASTS

OBSERVATIONS

USER TOOLS

ABOUT US